sensor_id;sensor_type;location;lat;lon;timestamp;P1;durP1;ratioP1;P2;durP2;ratioP2
9234;SDS011;4652;42.716;23.218;2024-03-02T00:00:19;30.33;;;13.70;;
9234;SDS011;4652;42.716;23.218;2024-03-02T00:02:48;25.08;;;9.75;;
9234;SDS011;4652;42.716;23.218;2024-03-02T00:05:17;29.17;;;13.48;;
9234;SDS011;4652;42.716;23.218;2024-03-02T00:07:46;26.98;;;12.07;;
9234;SDS011;4652;42.716;23.218;2024-03-02T00:10:19;27.15;;;11.50;;
9234;SDS011;4652;42.716;23.218;2024-03-02T00:12:49;29.25;;;11.45;;
9234;SDS011;4652;42.716;23.218;2024-03-02T00:18:10;27.20;;;11.70;;
9234;SDS011;4652;42.716;23.218;2024-03-02T00:20:57;30.20;;;12.57;;
9234;SDS011;4652;42.716;23.218;2024-03-02T00:23:26;28.98;;;11.82;;
9234;SDS011;4652;42.716;23.218;2024-03-02T00:25:54;23.75;;;11.15;;
9234;SDS011;4652;42.716;23.218;2024-03-02T00:28:25;29.48;;;12.98;;
9234;SDS011;4652;42.716;23.218;2024-03-02T00:31:12;29.95;;;12.25;;
9234;SDS011;4652;42.716;23.218;2024-03-02T00:33:43;22.67;;;9.80;;
9234;SDS011;4652;42.716;23.218;2024-03-02T00:36:11;22.45;;;9.38;;
9234;SDS011;4652;42.716;23.218;2024-03-02T00:38:48;27.45;;;10.52;;
9234;SDS011;4652;42.716;23.218;2024-03-02T00:41:17;21.50;;;11.18;;
9234;SDS011;4652;42.716;23.218;2024-03-02T00:43:46;22.67;;;9.90;;
9234;SDS011;4652;42.716;23.218;2024-03-02T00:46:17;25.08;;;10.15;;
9234;SDS011;4652;42.716;23.218;2024-03-02T00:48:47;21.42;;;10.13;;
9234;SDS011;4652;42.716;23.218;2024-03-02T00:51:17;27.27;;;11.05;;
9234;SDS011;4652;42.716;23.218;2024-03-02T00:53:43;31.27;;;11.68;;
9234;SDS011;4652;42.716;23.218;2024-03-02T00:56:10;27.92;;;9.82;;
9234;SDS011;4652;42.716;23.218;2024-03-02T00:58:38;24.27;;;10.57;;
9234;SDS011;4652;42.716;23.218;2024-03-02T01:01:04;22.92;;;10.80;;
9234;SDS011;4652;42.716;23.218;2024-03-02T01:03:33;23.88;;;10.50;;
9234;SDS011;4652;42.716;23.218;2024-03-02T01:06:00;27.65;;;10.65;;
9234;SDS011;4652;42.716;23.218;2024-03-02T01:08:26;24.42;;;11.25;;
9234;SDS011;4652;42.716;23.218;2024-03-02T01:10:53;26.35;;;10.77;;
9234;SDS011;4652;42.716;23.218;2024-03-02T01:13:21;24.75;;;10.48;;
9234;SDS011;4652;42.716;23.218;2024-03-02T01:15:49;19.63;;;9.40;;
9234;SDS011;4652;42.716;23.218;2024-03-02T01:18:15;22.73;;;10.00;;
9234;SDS011;4652;42.716;23.218;2024-03-02T01:20:42;27.98;;;11.80;;
9234;SDS011;4652;42.716;23.218;2024-03-02T01:23:09;28.10;;;12.00;;
9234;SDS011;4652;42.716;23.218;2024-03-02T01:25:35;31.95;;;13.88;;
9234;SDS011;4652;42.716;23.218;2024-03-02T01:28:02;32.50;;;12.90;;
9234;SDS011;4652;42.716;23.218;2024-03-02T01:30:29;29.20;;;12.30;;
9234;SDS011;4652;42.716;23.218;2024-03-02T01:32:55;34.78;;;13.00;;
9234;SDS011;4652;42.716;23.218;2024-03-02T01:35:22;33.28;;;13.75;;
9234;SDS011;4652;42.716;23.218;2024-03-02T01:37:48;32.47;;;12.90;;
9234;SDS011;4652;42.716;23.218;2024-03-02T01:40:14;33.50;;;13.68;;
9234;SDS011;4652;42.716;23.218;2024-03-02T01:42:41;31.38;;;13.80;;
9234;SDS011;4652;42.716;23.218;2024-03-02T01:45:09;31.88;;;14.52;;
9234;SDS011;4652;42.716;23.218;2024-03-02T01:47:35;33.35;;;14.10;;
9234;SDS011;4652;42.716;23.218;2024-03-02T01:50:02;31.52;;;13.88;;
9234;SDS011;4652;42.716;23.218;2024-03-02T01:52:28;35.10;;;14.18;;
9234;SDS011;4652;42.716;23.218;2024-03-02T01:54:55;35.55;;;13.27;;
9234;SDS011;4652;42.716;23.218;2024-03-02T01:57:22;43.47;;;15.35;;
9234;SDS011;4652;42.716;23.218;2024-03-02T01:59:49;34.80;;;14.45;;
9234;SDS011;4652;42.716;23.218;2024-03-02T10:21:54;36.08;;;16.58;;
9234;SDS011;4652;42.716;23.218;2024-03-02T10:24:21;41.20;;;17.38;;
9234;SDS011;4652;42.716;23.218;2024-03-02T10:26:48;37.65;;;15.43;;
9234;SDS011;4652;42.716;23.218;2024-03-02T10:29:15;40.78;;;16.25;;
9234;SDS011;4652;42.716;23.218;2024-03-02T10:31:43;32.72;;;16.67;;
9234;SDS011;4652;42.716;23.218;2024-03-02T10:34:11;38.53;;;16.27;;
9234;SDS011;4652;42.716;23.218;2024-03-02T10:36:42;41.00;;;16.10;;
9234;SDS011;4652;42.716;23.218;2024-03-02T10:39:10;43.20;;;19.83;;
9234;SDS011;4652;42.716;23.218;2024-03-02T10:41:38;49.80;;;26.75;;
9234;SDS011;4652;42.716;23.218;2024-03-02T10:44:05;39.30;;;20.95;;
9234;SDS011;4652;42.716;23.218;2024-03-02T10:46:33;38.35;;;16.98;;
9234;SDS011;4652;42.716;23.218;2024-03-02T10:49:03;43.10;;;17.90;;
9234;SDS011;4652;42.716;23.218;2024-03-02T10:51:31;43.55;;;22.52;;
9234;SDS011;4652;42.716;23.218;2024-03-02T10:53:59;39.50;;;17.83;;
9234;SDS011;4652;42.716;23.218;2024-03-02T10:59:03;38.03;;;17.15;;
9234;SDS011;4652;42.716;23.218;2024-03-02T11:01:42;33.58;;;16.63;;
9234;SDS011;4652;42.716;23.218;2024-03-02T11:04:09;42.22;;;18.27;;
9234;SDS011;4652;42.716;23.218;2024-03-02T11:06:38;37.95;;;15.25;;
9234;SDS011;4652;42.716;23.218;2024-03-02T11:09:09;35.83;;;16.42;;
9234;SDS011;4652;42.716;23.218;2024-03-02T11:14:07;26.65;;;13.38;;
9234;SDS011;4652;42.716;23.218;2024-03-02T11:19:12;29.80;;;14.25;;
9234;SDS011;4652;42.716;23.218;2024-03-02T11:21:40;35.88;;;15.07;;
9234;SDS011;4652;42.716;23.218;2024-03-02T11:27:07;34.80;;;15.00;;
9234;SDS011;4652;42.716;23.218;2024-03-02T11:32:15;35.05;;;15.95;;
9234;SDS011;4652;42.716;23.218;2024-03-02T11:34:43;34.90;;;15.05;;
9234;SDS011;4652;42.716;23.218;2024-03-02T11:37:18;37.70;;;17.23;;
9234;SDS011;4652;42.716;23.218;2024-03-02T11:40:05;38.50;;;15.68;;
9234;SDS011;4652;42.716;23.218;2024-03-02T11:42:35;29.20;;;13.32;;
9234;SDS011;4652;42.716;23.218;2024-03-02T11:45:02;31.83;;;14.77;;
9234;SDS011;4652;42.716;23.218;2024-03-02T11:47:31;32.75;;;15.30;;
9234;SDS011;4652;42.716;23.218;2024-03-02T11:49:58;33.90;;;16.38;;
9234;SDS011;4652;42.716;23.218;2024-03-02T11:52:25;35.10;;;14.02;;
9234;SDS011;4652;42.716;23.218;2024-03-02T11:54:52;28.85;;;14.32;;
9234;SDS011;4652;42.716;23.218;2024-03-02T11:57:20;39.90;;;17.90;;
9234;SDS011;4652;42.716;23.218;2024-03-02T11:59:49;36.17;;;16.38;;
9234;SDS011;4652;42.716;23.218;2024-03-02T12:02:19;43.15;;;19.27;;
9234;SDS011;4652;42.716;23.218;2024-03-02T12:04:47;41.90;;;22.60;;
9234;SDS011;4652;42.716;23.218;2024-03-02T12:07:21;31.48;;;13.45;;
9234;SDS011;4652;42.716;23.218;2024-03-02T12:09:49;28.83;;;12.80;;
9234;SDS011;4652;42.716;23.218;2024-03-02T12:12:26;28.88;;;14.65;;
9234;SDS011;4652;42.716;23.218;2024-03-02T12:14:53;32.97;;;16.77;;
9234;SDS011;4652;42.716;23.218;2024-03-02T12:17:21;49.42;;;23.58;;
9234;SDS011;4652;42.716;23.218;2024-03-02T12:19:48;31.25;;;15.38;;
9234;SDS011;4652;42.716;23.218;2024-03-02T12:22:15;44.97;;;24.73;;
9234;SDS011;4652;42.716;23.218;2024-03-02T12:24:41;31.30;;;14.63;;
9234;SDS011;4652;42.716;23.218;2024-03-02T12:27:11;26.17;;;12.65;;
9234;SDS011;4652;42.716;23.218;2024-03-02T12:29:38;30.65;;;14.98;;
9234;SDS011;4652;42.716;23.218;2024-03-02T12:32:05;29.02;;;14.75;;
9234;SDS011;4652;42.716;23.218;2024-03-02T12:34:31;29.48;;;14.60;;
9234;SDS011;4652;42.716;23.218;2024-03-02T12:36:58;41.17;;;16.52;;
9234;SDS011;4652;42.716;23.218;2024-03-02T12:39:25;37.85;;;17.63;;
9234;SDS011;4652;42.716;23.218;2024-03-02T12:41:52;39.83;;;17.13;;
9234;SDS011;4652;42.716;23.218;2024-03-02T12:44:20;39.15;;;15.10;;
9234;SDS011;4652;42.716;23.218;2024-03-02T12:46:46;40.47;;;16.48;;
9234;SDS011;4652;42.716;23.218;2024-03-02T12:49:13;28.38;;;14.35;;
9234;SDS011;4652;42.716;23.218;2024-03-02T12:51:46;38.13;;;18.95;;
9234;SDS011;4652;42.716;23.218;2024-03-02T12:54:17;29.25;;;15.00;;
9234;SDS011;4652;42.716;23.218;2024-03-02T12:56:43;30.35;;;16.27;;
9234;SDS011;4652;42.716;23.218;2024-03-02T12:59:17;47.00;;;22.45;;
9234;SDS011;4652;42.716;23.218;2024-03-02T13:01:54;53.78;;;27.02;;
9234;SDS011;4652;42.716;23.218;2024-03-02T13:04:27;37.55;;;15.88;;
9234;SDS011;4652;42.716;23.218;2024-03-02T13:06:54;28.98;;;14.60;;
9234;SDS011;4652;42.716;23.218;2024-03-02T13:09:24;34.72;;;15.00;;
9234;SDS011;4652;42.716;23.218;2024-03-02T13:11:49;36.28;;;17.00;;
9234;SDS011;4652;42.716;23.218;2024-03-02T13:14:15;31.02;;;15.00;;
9234;SDS011;4652;42.716;23.218;2024-03-02T13:16:41;31.17;;;15.77;;
9234;SDS011;4652;42.716;23.218;2024-03-02T13:19:08;43.10;;;18.17;;
9234;SDS011;4652;42.716;23.218;2024-03-02T13:21:34;39.15;;;16.33;;
9234;SDS011;4652;42.716;23.218;2024-03-02T13:24:00;33.28;;;15.02;;
9234;SDS011;4652;42.716;23.218;2024-03-02T13:26:26;39.70;;;18.60;;
9234;SDS011;4652;42.716;23.218;2024-03-02T13:28:52;73.07;;;33.75;;
9234;SDS011;4652;42.716;23.218;2024-03-02T13:31:18;57.90;;;28.27;;
9234;SDS011;4652;42.716;23.218;2024-03-02T13:33:44;77.10;;;36.03;;
9234;SDS011;4652;42.716;23.218;2024-03-02T13:36:10;111.85;;;53.03;;
9234;SDS011;4652;42.716;23.218;2024-03-02T13:38:35;62.35;;;25.80;;
9234;SDS011;4652;42.716;23.218;2024-03-02T13:41:01;75.10;;;30.23;;
9234;SDS011;4652;42.716;23.218;2024-03-02T13:43:27;53.05;;;23.73;;
9234;SDS011;4652;42.716;23.218;2024-03-02T13:45:53;36.53;;;17.42;;
9234;SDS011;4652;42.716;23.218;2024-03-02T13:48:18;47.10;;;20.77;;
9234;SDS011;4652;42.716;23.218;2024-03-02T13:50:44;73.50;;;30.80;;
9234;SDS011;4652;42.716;23.218;2024-03-02T13:53:11;47.42;;;24.98;;
9234;SDS011;4652;42.716;23.218;2024-03-02T13:55:37;51.80;;;26.80;;
9234;SDS011;4652;42.716;23.218;2024-03-02T13:58:03;39.92;;;18.33;;
9234;SDS011;4652;42.716;23.218;2024-03-02T14:03:42;26.45;;;14.25;;
9234;SDS011;4652;42.716;23.218;2024-03-02T14:06:07;35.85;;;16.50;;
9234;SDS011;4652;42.716;23.218;2024-03-02T14:08:33;35.40;;;15.75;;
9234;SDS011;4652;42.716;23.218;2024-03-02T14:11:01;40.40;;;17.27;;
9234;SDS011;4652;42.716;23.218;2024-03-02T14:13:27;41.40;;;18.65;;
9234;SDS011;4652;42.716;23.218;2024-03-02T14:15:54;36.97;;;16.42;;
9234;SDS011;4652;42.716;23.218;2024-03-02T14:18:19;34.53;;;16.23;;
9234;SDS011;4652;42.716;23.218;2024-03-02T14:20:46;34.45;;;15.43;;
9234;SDS011;4652;42.716;23.218;2024-03-02T14:23:17;32.92;;;15.50;;
9234;SDS011;4652;42.716;23.218;2024-03-02T14:25:44;29.52;;;14.45;;
9234;SDS011;4652;42.716;23.218;2024-03-02T14:28:10;33.63;;;15.82;;
9234;SDS011;4652;42.716;23.218;2024-03-02T14:30:37;30.33;;;14.43;;
9234;SDS011;4652;42.716;23.218;2024-03-02T14:33:03;37.88;;;16.15;;
9234;SDS011;4652;42.716;23.218;2024-03-02T14:35:28;31.73;;;14.15;;
9234;SDS011;4652;42.716;23.218;2024-03-02T14:37:54;30.13;;;14.45;;
9234;SDS011;4652;42.716;23.218;2024-03-02T14:40:22;33.28;;;15.05;;
9234;SDS011;4652;42.716;23.218;2024-03-02T14:42:50;30.48;;;14.10;;
9234;SDS011;4652;42.716;23.218;2024-03-02T14:45:16;30.13;;;14.52;;
9234;SDS011;4652;42.716;23.218;2024-03-02T14:47:41;28.98;;;14.45;;
9234;SDS011;4652;42.716;23.218;2024-03-02T14:50:07;28.23;;;14.82;;
9234;SDS011;4652;42.716;23.218;2024-03-02T14:52:34;33.85;;;13.32;;
9234;SDS011;4652;42.716;23.218;2024-03-02T14:55:00;29.55;;;13.50;;
9234;SDS011;4652;42.716;23.218;2024-03-02T14:57:27;32.28;;;13.85;;
9234;SDS011;4652;42.716;23.218;2024-03-02T14:59:53;29.35;;;12.98;;
9234;SDS011;4652;42.716;23.218;2024-03-02T15:02:20;27.50;;;13.18;;
9234;SDS011;4652;42.716;23.218;2024-03-02T15:04:47;30.25;;;13.75;;
9234;SDS011;4652;42.716;23.218;2024-03-02T15:07:14;27.33;;;12.40;;
9234;SDS011;4652;42.716;23.218;2024-03-02T15:09:42;31.90;;;14.05;;
9234;SDS011;4652;42.716;23.218;2024-03-02T15:12:07;29.30;;;14.68;;
9234;SDS011;4652;42.716;23.218;2024-03-02T15:14:38;31.58;;;15.48;;
9234;SDS011;4652;42.716;23.218;2024-03-02T15:17:12;27.92;;;13.57;;
9234;SDS011;4652;42.716;23.218;2024-03-02T15:19:42;31.17;;;14.65;;
9234;SDS011;4652;42.716;23.218;2024-03-02T15:22:11;33.60;;;15.88;;
9234;SDS011;4652;42.716;23.218;2024-03-02T15:24:38;35.25;;;15.93;;
9234;SDS011;4652;42.716;23.218;2024-03-02T15:27:05;32.28;;;15.80;;
9234;SDS011;4652;42.716;23.218;2024-03-02T15:29:33;33.10;;;15.88;;
9234;SDS011;4652;42.716;23.218;2024-03-02T15:31:59;30.35;;;15.50;;
9234;SDS011;4652;42.716;23.218;2024-03-02T15:34:25;31.05;;;14.80;;
9234;SDS011;4652;42.716;23.218;2024-03-02T15:36:51;31.83;;;15.30;;
9234;SDS011;4652;42.716;23.218;2024-03-02T15:39:18;26.92;;;14.52;;
9234;SDS011;4652;42.716;23.218;2024-03-02T15:41:44;31.75;;;14.65;;
9234;SDS011;4652;42.716;23.218;2024-03-02T15:44:10;26.60;;;13.52;;
9234;SDS011;4652;42.716;23.218;2024-03-02T15:46:37;28.90;;;14.55;;
9234;SDS011;4652;42.716;23.218;2024-03-02T15:49:03;30.77;;;14.07;;
9234;SDS011;4652;42.716;23.218;2024-03-02T15:51:31;29.70;;;13.82;;
9234;SDS011;4652;42.716;23.218;2024-03-02T15:54:09;29.98;;;13.43;;
9234;SDS011;4652;42.716;23.218;2024-03-02T15:56:36;29.88;;;14.80;;
9234;SDS011;4652;42.716;23.218;2024-03-02T15:59:03;26.27;;;12.40;;
9234;SDS011;4652;42.716;23.218;2024-03-02T16:01:34;29.83;;;12.82;;
9234;SDS011;4652;42.716;23.218;2024-03-02T16:04:00;28.80;;;13.25;;
9234;SDS011;4652;42.716;23.218;2024-03-02T16:06:26;29.42;;;14.55;;
9234;SDS011;4652;42.716;23.218;2024-03-02T16:08:52;32.15;;;16.02;;
9234;SDS011;4652;42.716;23.218;2024-03-02T16:11:20;30.45;;;13.77;;
9234;SDS011;4652;42.716;23.218;2024-03-02T16:13:47;32.08;;;13.73;;
9234;SDS011;4652;42.716;23.218;2024-03-02T16:16:13;30.30;;;14.15;;
9234;SDS011;4652;42.716;23.218;2024-03-02T16:18:39;29.45;;;14.45;;
9234;SDS011;4652;42.716;23.218;2024-03-02T16:21:07;33.05;;;14.70;;
9234;SDS011;4652;42.716;23.218;2024-03-02T16:23:34;37.03;;;16.40;;
9234;SDS011;4652;42.716;23.218;2024-03-02T16:26:01;45.10;;;19.63;;
9234;SDS011;4652;42.716;23.218;2024-03-02T16:28:27;39.78;;;17.10;;
9234;SDS011;4652;42.716;23.218;2024-03-02T16:30:53;53.30;;;23.40;;
9234;SDS011;4652;42.716;23.218;2024-03-02T16:33:20;42.88;;;21.50;;
9234;SDS011;4652;42.716;23.218;2024-03-02T16:35:46;37.90;;;17.98;;
9234;SDS011;4652;42.716;23.218;2024-03-02T16:38:14;36.13;;;16.88;;
9234;SDS011;4652;42.716;23.218;2024-03-02T16:40:40;39.38;;;17.80;;
9234;SDS011;4652;42.716;23.218;2024-03-02T16:43:06;39.17;;;17.70;;
9234;SDS011;4652;42.716;23.218;2024-03-02T16:45:32;51.85;;;20.13;;
9234;SDS011;4652;42.716;23.218;2024-03-02T16:47:58;66.13;;;27.77;;
9234;SDS011;4652;42.716;23.218;2024-03-02T16:50:24;91.40;;;31.42;;
9234;SDS011;4652;42.716;23.218;2024-03-02T16:52:50;84.05;;;31.13;;
9234;SDS011;4652;42.716;23.218;2024-03-02T16:55:17;72.05;;;28.23;;
9234;SDS011;4652;42.716;23.218;2024-03-02T16:57:44;62.67;;;27.40;;
9234;SDS011;4652;42.716;23.218;2024-03-02T17:00:10;69.15;;;29.90;;
9234;SDS011;4652;42.716;23.218;2024-03-02T17:02:37;54.03;;;24.48;;
9234;SDS011;4652;42.716;23.218;2024-03-02T17:05:03;50.63;;;25.50;;
9234;SDS011;4652;42.716;23.218;2024-03-02T17:07:29;45.53;;;24.75;;
9234;SDS011;4652;42.716;23.218;2024-03-02T17:09:56;48.90;;;22.67;;
9234;SDS011;4652;42.716;23.218;2024-03-02T17:12:23;51.15;;;23.30;;
9234;SDS011;4652;42.716;23.218;2024-03-02T17:14:49;74.85;;;30.85;;
9234;SDS011;4652;42.716;23.218;2024-03-02T17:17:16;55.28;;;23.02;;
9234;SDS011;4652;42.716;23.218;2024-03-02T17:19:43;101.43;;;35.85;;
9234;SDS011;4652;42.716;23.218;2024-03-02T17:22:10;81.53;;;31.60;;
9234;SDS011;4652;42.716;23.218;2024-03-02T17:24:37;66.45;;;28.98;;
9234;SDS011;4652;42.716;23.218;2024-03-02T17:27:03;57.38;;;25.52;;
9234;SDS011;4652;42.716;23.218;2024-03-02T17:29:29;70.22;;;26.83;;
9234;SDS011;4652;42.716;23.218;2024-03-02T17:31:57;61.78;;;27.38;;
9234;SDS011;4652;42.716;23.218;2024-03-02T17:34:24;66.40;;;28.17;;
9234;SDS011;4652;42.716;23.218;2024-03-02T17:36:50;67.70;;;29.40;;
9234;SDS011;4652;42.716;23.218;2024-03-02T17:39:18;80.75;;;33.78;;
9234;SDS011;4652;42.716;23.218;2024-03-02T17:41:44;96.28;;;37.85;;
9234;SDS011;4652;42.716;23.218;2024-03-02T17:44:10;93.28;;;37.03;;
9234;SDS011;4652;42.716;23.218;2024-03-02T17:46:37;80.15;;;32.38;;
9234;SDS011;4652;42.716;23.218;2024-03-02T17:49:03;61.67;;;28.70;;
9234;SDS011;4652;42.716;23.218;2024-03-02T17:51:29;49.70;;;23.60;;
9234;SDS011;4652;42.716;23.218;2024-03-02T17:53:55;46.22;;;21.58;;
9234;SDS011;4652;42.716;23.218;2024-03-02T17:56:22;45.65;;;19.42;;
9234;SDS011;4652;42.716;23.218;2024-03-02T17:58:49;35.78;;;17.17;;
9234;SDS011;4652;42.716;23.218;2024-03-02T18:01:15;48.63;;;19.20;;
9234;SDS011;4652;42.716;23.218;2024-03-02T18:03:42;36.30;;;16.27;;
9234;SDS011;4652;42.716;23.218;2024-03-02T18:06:08;40.55;;;18.23;;
9234;SDS011;4652;42.716;23.218;2024-03-02T18:08:38;32.75;;;15.35;;
9234;SDS011;4652;42.716;23.218;2024-03-02T18:11:05;33.83;;;16.33;;
9234;SDS011;4652;42.716;23.218;2024-03-02T18:13:34;31.80;;;15.00;;
9234;SDS011;4652;42.716;23.218;2024-03-02T18:16:01;31.35;;;14.10;;
9234;SDS011;4652;42.716;23.218;2024-03-02T18:18:27;33.20;;;14.50;;
9234;SDS011;4652;42.716;23.218;2024-03-02T18:20:54;31.98;;;13.25;;
9234;SDS011;4652;42.716;23.218;2024-03-02T18:23:20;33.95;;;13.18;;
9234;SDS011;4652;42.716;23.218;2024-03-02T18:25:46;29.95;;;13.32;;
9234;SDS011;4652;42.716;23.218;2024-03-02T18:28:13;30.88;;;12.63;;
9234;SDS011;4652;42.716;23.218;2024-03-02T18:30:39;30.98;;;12.77;;
9234;SDS011;4652;42.716;23.218;2024-03-02T18:33:06;29.25;;;12.85;;
9234;SDS011;4652;42.716;23.218;2024-03-02T18:35:33;28.58;;;14.02;;
9234;SDS011;4652;42.716;23.218;2024-03-02T18:38:02;30.48;;;12.68;;
9234;SDS011;4652;42.716;23.218;2024-03-02T18:40:28;24.92;;;11.88;;
9234;SDS011;4652;42.716;23.218;2024-03-02T18:42:54;28.25;;;13.07;;
9234;SDS011;4652;42.716;23.218;2024-03-02T18:45:21;20.88;;;11.02;;
9234;SDS011;4652;42.716;23.218;2024-03-02T18:47:47;28.95;;;12.90;;
9234;SDS011;4652;42.716;23.218;2024-03-02T18:50:13;25.17;;;11.63;;
9234;SDS011;4652;42.716;23.218;2024-03-02T18:52:40;22.48;;;10.73;;
9234;SDS011;4652;42.716;23.218;2024-03-02T18:55:07;21.50;;;11.20;;
9234;SDS011;4652;42.716;23.218;2024-03-02T18:57:33;23.13;;;10.63;;
9234;SDS011;4652;42.716;23.218;2024-03-02T19:00:00;28.30;;;11.05;;
9234;SDS011;4652;42.716;23.218;2024-03-02T19:02:26;24.75;;;11.25;;
9234;SDS011;4652;42.716;23.218;2024-03-02T19:04:54;27.05;;;11.88;;
9234;SDS011;4652;42.716;23.218;2024-03-02T19:07:20;26.10;;;12.27;;
9234;SDS011;4652;42.716;23.218;2024-03-02T19:09:47;24.33;;;11.60;;
9234;SDS011;4652;42.716;23.218;2024-03-02T19:12:13;27.20;;;12.85;;
9234;SDS011;4652;42.716;23.218;2024-03-02T19:14:40;34.50;;;14.80;;
9234;SDS011;4652;42.716;23.218;2024-03-02T19:17:06;32.70;;;12.88;;
9234;SDS011;4652;42.716;23.218;2024-03-02T19:19:33;30.80;;;13.38;;
9234;SDS011;4652;42.716;23.218;2024-03-02T19:21:59;30.23;;;14.02;;
9234;SDS011;4652;42.716;23.218;2024-03-02T19:24:26;25.58;;;13.02;;
9234;SDS011;4652;42.716;23.218;2024-03-02T19:26:52;34.00;;;14.00;;
9234;SDS011;4652;42.716;23.218;2024-03-02T19:29:19;34.90;;;14.50;;
9234;SDS011;4652;42.716;23.218;2024-03-02T19:31:45;37.03;;;14.15;;
9234;SDS011;4652;42.716;23.218;2024-03-02T19:34:12;33.17;;;13.65;;
9234;SDS011;4652;42.716;23.218;2024-03-02T19:36:38;35.83;;;14.55;;
9234;SDS011;4652;42.716;23.218;2024-03-02T19:39:05;33.63;;;14.27;;
9234;SDS011;4652;42.716;23.218;2024-03-02T19:41:31;30.65;;;14.55;;
9234;SDS011;4652;42.716;23.218;2024-03-02T19:43:57;29.80;;;14.85;;
9234;SDS011;4652;42.716;23.218;2024-03-02T19:46:24;39.50;;;16.40;;
9234;SDS011;4652;42.716;23.218;2024-03-02T19:48:50;45.10;;;17.92;;
9234;SDS011;4652;42.716;23.218;2024-03-02T19:51:17;37.88;;;15.70;;
9234;SDS011;4652;42.716;23.218;2024-03-02T19:53:43;41.63;;;17.05;;
9234;SDS011;4652;42.716;23.218;2024-03-02T19:56:15;40.47;;;17.35;;
9234;SDS011;4652;42.716;23.218;2024-03-02T19:58:42;35.60;;;15.60;;
9234;SDS011;4652;42.716;23.218;2024-03-02T20:52:59;41.13;;;16.92;;
9234;SDS011;4652;42.716;23.218;2024-03-02T20:55:31;43.25;;;16.08;;
9234;SDS011;4652;42.716;23.218;2024-03-02T20:57:58;40.97;;;17.83;;
9234;SDS011;4652;42.716;23.218;2024-03-02T21:00:24;40.83;;;16.80;;
9234;SDS011;4652;42.716;23.218;2024-03-02T21:02:51;38.00;;;16.40;;
9234;SDS011;4652;42.716;23.218;2024-03-02T21:05:18;39.75;;;16.83;;
9234;SDS011;4652;42.716;23.218;2024-03-02T21:07:46;39.42;;;18.50;;
9234;SDS011;4652;42.716;23.218;2024-03-02T21:10:12;37.65;;;16.48;;
9234;SDS011;4652;42.716;23.218;2024-03-02T21:12:38;37.65;;;15.57;;
9234;SDS011;4652;42.716;23.218;2024-03-02T21:15:05;38.90;;;15.15;;
9234;SDS011;4652;42.716;23.218;2024-03-02T21:17:32;35.70;;;15.18;;
9234;SDS011;4652;42.716;23.218;2024-03-02T21:19:59;36.75;;;16.73;;
9234;SDS011;4652;42.716;23.218;2024-03-02T21:22:25;33.35;;;14.60;;
9234;SDS011;4652;42.716;23.218;2024-03-02T21:24:51;39.50;;;14.18;;
9234;SDS011;4652;42.716;23.218;2024-03-02T21:27:18;31.98;;;14.48;;
9234;SDS011;4652;42.716;23.218;2024-03-02T21:29:44;31.65;;;13.95;;
9234;SDS011;4652;42.716;23.218;2024-03-02T21:32:10;39.70;;;13.73;;
9234;SDS011;4652;42.716;23.218;2024-03-02T21:34:36;33.03;;;13.30;;
9234;SDS011;4652;42.716;23.218;2024-03-02T21:37:03;29.88;;;11.93;;
9234;SDS011;4652;42.716;23.218;2024-03-02T21:39:30;34.17;;;13.02;;
9234;SDS011;4652;42.716;23.218;2024-03-02T21:41:56;29.63;;;11.65;;
9234;SDS011;4652;42.716;23.218;2024-03-02T21:44:22;37.28;;;13.85;;
9234;SDS011;4652;42.716;23.218;2024-03-02T21:46:48;27.20;;;12.82;;
9234;SDS011;4652;42.716;23.218;2024-03-02T21:49:15;33.53;;;12.80;;
9234;SDS011;4652;42.716;23.218;2024-03-02T21:51:41;35.38;;;14.50;;
9234;SDS011;4652;42.716;23.218;2024-03-02T21:54:07;34.30;;;14.35;;
9234;SDS011;4652;42.716;23.218;2024-03-02T21:56:34;35.85;;;15.65;;
9234;SDS011;4652;42.716;23.218;2024-03-02T21:59:00;34.10;;;14.32;;
9234;SDS011;4652;42.716;23.218;2024-03-02T22:01:26;33.92;;;16.48;;
9234;SDS011;4652;42.716;23.218;2024-03-02T22:03:53;40.20;;;16.27;;
9234;SDS011;4652;42.716;23.218;2024-03-02T22:06:19;34.72;;;15.27;;
9234;SDS011;4652;42.716;23.218;2024-03-02T22:08:45;32.00;;;14.65;;
9234;SDS011;4652;42.716;23.218;2024-03-02T22:11:11;39.80;;;15.88;;
9234;SDS011;4652;42.716;23.218;2024-03-02T22:13:38;32.50;;;14.20;;
9234;SDS011;4652;42.716;23.218;2024-03-02T22:16:04;39.58;;;16.67;;
9234;SDS011;4652;42.716;23.218;2024-03-02T22:18:31;35.13;;;14.68;;
9234;SDS011;4652;42.716;23.218;2024-03-02T22:20:57;34.78;;;15.05;;
9234;SDS011;4652;42.716;23.218;2024-03-02T22:23:23;33.45;;;14.18;;
9234;SDS011;4652;42.716;23.218;2024-03-02T22:25:49;28.77;;;13.40;;
9234;SDS011;4652;42.716;23.218;2024-03-02T22:28:16;29.67;;;12.82;;
9234;SDS011;4652;42.716;23.218;2024-03-02T22:30:42;28.05;;;13.30;;
9234;SDS011;4652;42.716;23.218;2024-03-02T22:33:08;31.00;;;12.13;;
9234;SDS011;4652;42.716;23.218;2024-03-02T22:35:34;28.90;;;11.45;;
9234;SDS011;4652;42.716;23.218;2024-03-02T22:38:00;27.98;;;12.05;;
9234;SDS011;4652;42.716;23.218;2024-03-02T22:40:26;27.02;;;12.13;;
9234;SDS011;4652;42.716;23.218;2024-03-02T22:42:53;35.25;;;12.73;;
9234;SDS011;4652;42.716;23.218;2024-03-02T22:45:19;30.63;;;11.80;;
9234;SDS011;4652;42.716;23.218;2024-03-02T22:47:45;35.45;;;13.32;;
9234;SDS011;4652;42.716;23.218;2024-03-02T22:50:11;31.08;;;13.80;;
9234;SDS011;4652;42.716;23.218;2024-03-02T22:52:38;29.73;;;12.73;;
9234;SDS011;4652;42.716;23.218;2024-03-02T22:55:04;28.17;;;12.90;;
9234;SDS011;4652;42.716;23.218;2024-03-02T22:57:31;28.67;;;12.30;;
9234;SDS011;4652;42.716;23.218;2024-03-02T22:59:57;23.35;;;10.98;;
9234;SDS011;4652;42.716;23.218;2024-03-02T23:02:23;26.20;;;11.45;;
9234;SDS011;4652;42.716;23.218;2024-03-02T23:04:49;27.30;;;11.55;;
9234;SDS011;4652;42.716;23.218;2024-03-02T23:07:16;26.13;;;11.75;;
9234;SDS011;4652;42.716;23.218;2024-03-02T23:09:45;26.65;;;11.90;;
9234;SDS011;4652;42.716;23.218;2024-03-02T23:12:11;24.40;;;10.73;;
9234;SDS011;4652;42.716;23.218;2024-03-02T23:14:39;20.90;;;10.00;;
9234;SDS011;4652;42.716;23.218;2024-03-02T23:17:06;26.35;;;11.60;;
9234;SDS011;4652;42.716;23.218;2024-03-02T23:19:32;23.35;;;10.77;;
9234;SDS011;4652;42.716;23.218;2024-03-02T23:21:58;32.63;;;12.10;;
9234;SDS011;4652;42.716;23.218;2024-03-02T23:24:25;28.50;;;12.23;;
9234;SDS011;4652;42.716;23.218;2024-03-02T23:26:51;27.83;;;11.85;;
9234;SDS011;4652;42.716;23.218;2024-03-02T23:29:18;25.23;;;10.98;;
9234;SDS011;4652;42.716;23.218;2024-03-02T23:31:44;28.02;;;12.63;;
9234;SDS011;4652;42.716;23.218;2024-03-02T23:34:11;28.30;;;12.70;;
9234;SDS011;4652;42.716;23.218;2024-03-02T23:36:37;25.70;;;11.65;;
9234;SDS011;4652;42.716;23.218;2024-03-02T23:39:03;28.88;;;12.90;;
9234;SDS011;4652;42.716;23.218;2024-03-02T23:41:30;26.80;;;11.77;;
9234;SDS011;4652;42.716;23.218;2024-03-02T23:43:57;23.67;;;11.05;;
9234;SDS011;4652;42.716;23.218;2024-03-02T23:46:25;26.20;;;10.63;;
9234;SDS011;4652;42.716;23.218;2024-03-02T23:48:51;25.27;;;10.90;;
9234;SDS011;4652;42.716;23.218;2024-03-02T23:51:17;25.15;;;10.85;;
9234;SDS011;4652;42.716;23.218;2024-03-02T23:53:44;21.40;;;10.52;;
9234;SDS011;4652;42.716;23.218;2024-03-02T23:56:10;20.58;;;10.50;;
9234;SDS011;4652;42.716;23.218;2024-03-02T23:58:38;24.25;;;10.95;;
